createdAt,value
2022-11-10T00:00:17.551Z,12.25
2022-11-10T00:01:21.920Z,12.24
2022-11-10T00:02:26.246Z,12.24
2022-11-10T00:03:30.577Z,12.24
2022-11-10T00:04:35.009Z,12.23
2022-11-10T00:05:39.226Z,12.22
2022-11-10T00:06:43.529Z,12.22
2022-11-10T00:07:47.704Z,12.22
2022-11-10T00:08:52.071Z,12.22
2022-11-10T00:09:56.286Z,12.23
2022-11-10T00:11:00.529Z,12.23
2022-11-10T00:12:04.774Z,12.23
2022-11-10T00:13:09.027Z,12.23
2022-11-10T00:14:13.368Z,12.23
2022-11-10T00:15:17.612Z,12.24
2022-11-10T00:16:21.846Z,12.24
2022-11-10T00:17:26.104Z,12.24
2022-11-10T00:18:30.323Z,12.24
2022-11-10T00:19:34.670Z,12.23
2022-11-10T00:20:38.974Z,12.23
2022-11-10T00:21:43.175Z,12.23
2022-11-10T00:22:47.544Z,12.23
2022-11-10T00:23:51.808Z,12.23
2022-11-10T00:24:56.000Z,12.23
2022-11-10T00:26:00.242Z,12.22
2022-11-10T00:27:04.628Z,12.22
2022-11-10T00:28:08.908Z,12.22
2022-11-10T00:29:13.122Z,12.22
2022-11-10T00:30:17.480Z,12.22
2022-11-10T00:31:21.720Z,12.22
2022-11-10T00:32:26.079Z,12.22
2022-11-10T00:33:30.420Z,12.22
2022-11-10T00:34:34.630Z,12.22
2022-11-10T00:35:38.885Z,12.22
2022-11-10T00:36:43.103Z,12.22
2022-11-10T00:37:47.469Z,12.23
2022-11-10T00:38:51.647Z,12.23
2022-11-10T00:39:55.953Z,12.23
2022-11-10T00:41:00.159Z,12.23
2022-11-10T00:42:04.398Z,12.23
2022-11-10T00:43:08.712Z,12.23
2022-11-10T00:44:13.004Z,12.23
2022-11-10T00:45:17.349Z,12.24
2022-11-10T00:46:21.667Z,12.24
2022-11-10T00:47:26.004Z,12.25
2022-11-10T00:48:30.276Z,12.26
2022-11-10T00:49:34.601Z,12.27
2022-11-10T00:50:38.874Z,12.29
2022-11-10T00:51:43.140Z,12.29
2022-11-10T00:52:47.429Z,12.29
2022-11-10T00:53:51.778Z,12.29
2022-11-10T00:54:55.981Z,12.29
2022-11-10T00:56:00.350Z,12.29
2022-11-10T00:57:04.557Z,12.28
2022-11-10T00:58:08.830Z,12.28
2022-11-10T00:59:13.053Z,12.28
2022-11-10T01:00:17.335Z,12.28
2022-11-10T01:01:21.792Z,12.27
2022-11-10T01:02:25.909Z,12.27
2022-11-10T01:03:30.196Z,12.26
2022-11-10T01:04:34.512Z,12.26
2022-11-10T01:05:38.696Z,12.24
2022-11-10T01:06:43.074Z,12.23
2022-11-10T01:07:47.374Z,12.23
2022-11-10T01:08:51.610Z,12.24
2022-11-10T01:09:55.934Z,12.24
2022-11-10T01:11:00.152Z,12.23
2022-11-10T01:12:04.404Z,12.22
2022-11-10T01:13:08.680Z,12.21
2022-11-10T01:14:12.920Z,12.21
2022-11-10T01:15:17.178Z,12.20
2022-11-10T01:16:21.512Z,12.21
2022-11-10T01:17:25.826Z,12.21
2022-11-10T01:18:30.024Z,12.22
2022-11-10T01:19:34.327Z,12.22
2022-11-10T01:20:38.522Z,12.23
2022-11-10T01:21:42.772Z,12.24
2022-11-10T01:22:47.152Z,12.25
2022-11-10T01:23:51.475Z,12.25
2022-11-10T01:24:55.772Z,12.26
2022-11-10T01:25:59.991Z,12.26
2022-11-10T01:27:04.273Z,12.25
2022-11-10T01:28:08.516Z,12.24
2022-11-10T01:29:12.759Z,12.23
2022-11-10T01:30:17.040Z,12.22
2022-11-10T01:31:21.302Z,12.21
2022-11-10T01:32:25.673Z,12.21
2022-11-10T01:33:29.976Z,12.21
2022-11-10T01:34:34.162Z,12.20
2022-11-10T01:35:38.431Z,12.20
2022-11-10T01:36:42.764Z,12.19
2022-11-10T01:37:47.091Z,12.19
2022-11-10T01:38:51.322Z,12.19
2022-11-10T01:39:55.787Z,12.19
2022-11-10T01:40:59.969Z,12.18
2022-11-10T01:42:04.278Z,12.17
2022-11-10T01:43:08.514Z,12.16
2022-11-10T01:44:12.776Z,12.15
2022-11-10T01:45:17.010Z,12.11
2022-11-10T01:46:21.380Z,12.09
2022-11-10T01:47:25.680Z,12.06
2022-11-10T01:48:29.867Z,12.04
2022-11-10T01:49:34.250Z,12.02
2022-11-10T01:50:38.441Z,12.00
2022-11-10T01:51:42.663Z,11.96
2022-11-10T01:52:46.914Z,11.93
2022-11-10T01:53:51.154Z,11.92
2022-11-10T01:54:55.417Z,11.91
2022-11-10T01:55:59.704Z,11.90
2022-11-10T01:57:04.054Z,11.90
2022-11-10T01:58:08.256Z,11.89
2022-11-10T01:59:12.628Z,11.88
2022-11-10T02:00:16.837Z,11.86
2022-11-10T02:01:21.129Z,11.85
2022-11-10T02:02:25.273Z,11.83
2022-11-10T02:03:29.659Z,11.81
2022-11-10T02:04:33.875Z,11.81
2022-11-10T02:05:38.265Z,11.79
2022-11-10T02:06:42.494Z,11.78
2022-11-10T02:07:46.683Z,11.78
2022-11-10T02:08:50.893Z,11.77
2022-11-10T02:09:55.177Z,11.75
2022-11-10T02:10:59.540Z,11.74
2022-11-10T02:12:03.822Z,11.72
2022-11-10T02:13:07.994Z,11.69
2022-11-10T02:14:12.244Z,11.67
2022-11-10T02:15:16.499Z,11.65
2022-11-10T02:16:20.787Z,11.62
2022-11-10T02:17:25.079Z,11.61
2022-11-10T02:18:29.354Z,11.61
2022-11-10T02:19:33.657Z,11.60
2022-11-10T02:20:37.879Z,11.60
2022-11-10T02:21:42.155Z,11.60
2022-11-10T02:22:46.409Z,11.60
2022-11-10T02:23:50.780Z,11.60
2022-11-10T02:24:55.010Z,11.60
2022-11-10T02:25:59.280Z,11.60
2022-11-10T02:27:03.534Z,11.59
2022-11-10T02:28:07.773Z,11.60
2022-11-10T02:29:12.089Z,11.60
2022-11-10T02:30:16.322Z,11.58
2022-11-10T02:31:20.678Z,11.56
2022-11-10T02:32:24.865Z,11.56
2022-11-10T02:33:29.094Z,11.56
2022-11-10T02:34:33.320Z,11.55
2022-11-10T02:35:37.628Z,11.54
2022-11-10T02:36:41.912Z,11.53
2022-11-10T02:37:46.158Z,11.53
2022-11-10T02:38:53.451Z,11.52
2022-11-10T02:39:56.696Z,11.52
2022-11-10T02:41:00.971Z,11.51
2022-11-10T02:42:05.225Z,11.52
2022-11-10T02:43:09.499Z,11.52
2022-11-10T02:44:13.610Z,11.52
2022-11-10T02:45:17.941Z,11.52
2022-11-10T02:46:22.181Z,11.51
2022-11-10T02:47:26.460Z,11.50
2022-11-10T02:48:30.702Z,11.49
2022-11-10T02:49:35.055Z,11.49
2022-11-10T02:50:39.227Z,11.49
2022-11-10T02:51:43.528Z,11.48
2022-11-10T02:52:47.836Z,11.47
2022-11-10T02:53:52.071Z,11.46
2022-11-10T02:54:56.336Z,11.46
2022-11-10T02:56:00.637Z,11.45
2022-11-10T02:57:04.903Z,11.43
2022-11-10T02:58:09.169Z,11.42
2022-11-10T02:59:13.402Z,11.42
2022-11-10T03:00:17.628Z,11.41
2022-11-10T03:01:21.950Z,11.40
2022-11-10T03:02:29.784Z,11.39
2022-11-10T03:03:30.424Z,11.38
2022-11-10T03:04:34.677Z,11.38
2022-11-10T03:05:38.940Z,11.39
2022-11-10T03:06:43.237Z,11.39
2022-11-10T03:07:47.472Z,11.39
2022-11-10T03:08:51.813Z,11.38
2022-11-10T03:09:56.032Z,11.37
2022-11-10T03:11:00.392Z,11.37
2022-11-10T03:12:04.602Z,11.37
2022-11-10T03:13:08.841Z,11.38
2022-11-10T03:14:13.107Z,11.38
2022-11-10T03:15:17.354Z,11.40
2022-11-10T03:16:21.636Z,11.41
2022-11-10T03:17:25.860Z,11.42
2022-11-10T03:18:30.212Z,11.42
2022-11-10T03:19:34.507Z,11.42
2022-11-10T03:20:38.719Z,11.41
2022-11-10T03:21:43.058Z,11.40
2022-11-10T03:22:47.242Z,11.38
2022-11-10T03:23:51.577Z,11.37
2022-11-10T03:24:55.770Z,11.37
2022-11-10T03:25:59.974Z,11.37
2022-11-10T03:27:04.243Z,11.37
2022-11-10T03:28:08.559Z,11.38
2022-11-10T03:29:12.788Z,11.38
2022-11-10T03:30:17.145Z,11.38
2022-11-10T03:31:21.368Z,11.39
2022-11-10T03:32:25.576Z,11.40
2022-11-10T03:33:29.831Z,11.41
2022-11-10T03:34:34.068Z,11.41
2022-11-10T03:35:38.399Z,11.42
2022-11-10T03:36:42.695Z,11.42
2022-11-10T03:37:46.899Z,11.42
2022-11-10T03:38:51.114Z,11.42
2022-11-10T03:39:55.464Z,11.43
2022-11-10T03:42:04.017Z,11.45
2022-11-10T03:43:08.271Z,11.45
2022-11-10T03:44:12.598Z,11.46
2022-11-10T03:45:16.823Z,11.46
2022-11-10T03:46:21.179Z,11.47
2022-11-10T03:47:25.481Z,11.47
2022-11-10T03:48:29.783Z,11.47
2022-11-10T03:49:33.997Z,11.46
2022-11-10T03:50:38.233Z,11.45
2022-11-10T03:51:42.493Z,11.43
2022-11-10T03:52:46.901Z,11.42
2022-11-10T03:53:51.081Z,11.41
2022-11-10T03:54:59.289Z,11.40
2022-11-10T03:55:59.532Z,11.38
2022-11-10T03:57:03.822Z,11.37
2022-11-10T03:58:08.136Z,11.37
2022-11-10T03:59:12.361Z,11.38
2022-11-10T04:00:16.559Z,11.38
2022-11-10T04:01:20.816Z,11.38
2022-11-10T04:02:25.020Z,11.38
2022-11-10T04:03:29.274Z,11.40
2022-11-10T04:04:33.567Z,11.40
2022-11-10T04:05:37.806Z,11.40
2022-11-10T04:06:42.236Z,11.40
2022-11-10T04:07:46.412Z,11.40
2022-11-10T04:08:50.633Z,11.42
2022-11-10T04:09:54.867Z,11.44
2022-11-10T04:10:59.125Z,11.46
2022-11-10T04:12:03.487Z,11.49
2022-11-10T04:13:07.710Z,11.52
2022-11-10T04:14:11.918Z,11.53
2022-11-10T04:15:16.297Z,11.55
2022-11-10T04:16:20.474Z,11.56
2022-11-10T04:17:24.761Z,11.57
2022-11-10T04:18:29.010Z,11.58
2022-11-10T04:19:33.321Z,11.60
2022-11-10T04:20:37.619Z,11.61
2022-11-10T04:21:41.826Z,11.62
2022-11-10T04:22:46.143Z,11.63
2022-11-10T04:23:50.372Z,11.62
2022-11-10T04:24:54.698Z,11.61
2022-11-10T04:25:58.999Z,11.61
2022-11-10T04:27:03.194Z,11.60
2022-11-10T04:28:07.419Z,11.59
2022-11-10T04:29:11.684Z,11.59
2022-11-10T04:30:15.929Z,11.58
2022-11-10T04:31:20.350Z,11.58
2022-11-10T04:32:24.527Z,11.59
2022-11-10T04:33:28.809Z,11.58
2022-11-10T04:34:33.067Z,11.59
2022-11-10T04:35:37.410Z,11.58
2022-11-10T04:36:41.610Z,11.57
2022-11-10T04:37:45.842Z,11.55
2022-11-10T04:38:50.164Z,11.52
2022-11-10T04:39:54.476Z,11.51
2022-11-10T04:40:58.745Z,11.49
2022-11-10T04:42:03.170Z,11.48
2022-11-10T04:43:07.159Z,11.47
2022-11-10T04:44:11.446Z,11.46
2022-11-10T04:45:15.692Z,11.45
2022-11-10T04:46:20.067Z,11.45
2022-11-10T04:47:24.386Z,11.43
2022-11-10T04:48:28.602Z,11.40
2022-11-10T04:49:32.938Z,11.39
2022-11-10T04:50:37.195Z,11.37
2022-11-10T04:51:41.539Z,11.37
2022-11-10T04:52:45.701Z,11.38
2022-11-10T04:53:50.075Z,11.38
2022-11-10T04:54:54.299Z,11.37
2022-11-10T04:55:58.516Z,11.36
2022-11-10T04:57:02.758Z,11.36
2022-11-10T04:58:07.088Z,11.36
2022-11-10T04:59:11.264Z,11.37
2022-11-10T05:00:15.509Z,11.38
2022-11-10T05:01:19.860Z,11.40
2022-11-10T05:02:24.028Z,11.42
2022-11-10T05:03:28.341Z,11.43
2022-11-10T05:04:32.632Z,11.45
2022-11-10T05:05:36.970Z,11.46
2022-11-10T05:06:41.320Z,11.48
2022-11-10T05:07:45.560Z,11.48
2022-11-10T05:08:49.792Z,11.48
2022-11-10T05:09:54.079Z,11.48
2022-11-10T05:10:58.402Z,11.48
2022-11-10T05:12:02.591Z,11.49
2022-11-10T05:13:06.948Z,11.49
2022-11-10T05:14:11.129Z,11.51
2022-11-10T05:15:15.402Z,11.51
2022-11-10T05:16:19.662Z,11.51
2022-11-10T05:17:23.904Z,11.49
2022-11-10T05:18:28.168Z,11.49
2022-11-10T05:19:32.446Z,11.49
2022-11-10T05:20:36.690Z,11.47
2022-11-10T05:21:40.912Z,11.46
2022-11-10T05:22:48.893Z,11.45
2022-11-10T05:23:49.371Z,11.44
2022-11-10T05:24:53.610Z,11.44
2022-11-10T05:25:57.969Z,11.44
2022-11-10T05:27:02.237Z,11.43
2022-11-10T05:28:06.427Z,11.44
2022-11-10T05:29:10.719Z,11.44
2022-11-10T05:30:15.095Z,11.43
2022-11-10T05:31:19.267Z,11.43
2022-11-10T05:32:23.520Z,11.42
2022-11-10T05:33:27.792Z,11.42
2022-11-10T05:34:32.063Z,11.42
2022-11-10T05:35:36.304Z,11.42
2022-11-10T05:36:40.539Z,11.41
2022-11-10T05:37:44.849Z,11.40
2022-11-10T05:38:49.036Z,11.39
2022-11-10T05:39:53.310Z,11.38
2022-11-10T05:40:57.558Z,11.36
2022-11-10T05:42:01.765Z,11.34
2022-11-10T05:43:05.990Z,11.32
2022-11-10T05:44:10.250Z,11.30
2022-11-10T05:45:14.491Z,11.29
2022-11-10T05:46:18.750Z,11.28
2022-11-10T05:47:23.023Z,11.28
2022-11-10T05:48:27.410Z,11.28
2022-11-10T05:49:31.590Z,11.28
2022-11-10T05:50:35.842Z,11.27
2022-11-10T05:51:40.116Z,11.24
2022-11-10T05:52:49.907Z,11.22
2022-11-10T05:53:48.633Z,11.21
2022-11-10T05:54:52.966Z,11.21
2022-11-10T05:56:00.202Z,11.20
2022-11-10T05:57:03.473Z,11.19
2022-11-10T05:58:07.798Z,11.19
2022-11-10T05:59:12.082Z,11.19
2022-11-10T06:00:16.283Z,11.18
2022-11-10T06:01:20.620Z,11.16
2022-11-10T06:02:24.828Z,11.13
2022-11-10T06:03:29.093Z,11.11
2022-11-10T06:04:33.358Z,11.10
2022-11-10T06:05:37.652Z,11.08
2022-11-10T06:06:41.863Z,11.06
2022-11-10T06:07:46.090Z,11.05
2022-11-10T06:08:50.382Z,11.03
2022-11-10T06:09:54.561Z,11.02
2022-11-10T06:10:58.805Z,11.01
2022-11-10T06:12:03.067Z,10.99
2022-11-10T06:13:07.307Z,10.99
2022-11-10T06:14:11.570Z,10.99
2022-11-10T06:15:15.821Z,10.99
2022-11-10T06:16:20.091Z,10.99
2022-11-10T06:17:24.315Z,10.98
2022-11-10T06:18:28.636Z,10.99
2022-11-10T06:19:32.827Z,11.00
2022-11-10T06:20:37.152Z,11.01
2022-11-10T06:21:41.460Z,11.01
2022-11-10T06:22:45.674Z,11.02
2022-11-10T06:23:50.050Z,11.02
2022-11-10T06:24:54.225Z,11.02
2022-11-10T06:25:58.455Z,11.01
2022-11-10T06:27:02.691Z,11.01
2022-11-10T06:28:06.933Z,11.02
2022-11-10T06:29:11.260Z,11.02
2022-11-10T06:30:15.518Z,11.03
2022-11-10T06:31:19.838Z,11.04
2022-11-10T06:32:24.018Z,11.04
2022-11-10T06:33:28.264Z,11.04
2022-11-10T06:34:32.608Z,11.05
2022-11-10T06:35:36.801Z,11.05
2022-11-10T06:36:41.136Z,11.05
2022-11-10T06:37:45.334Z,11.04
2022-11-10T06:38:49.533Z,11.04
2022-11-10T06:39:53.801Z,11.04
2022-11-10T06:40:57.978Z,11.04
2022-11-10T06:42:02.237Z,11.04
2022-11-10T06:43:06.589Z,11.03
2022-11-10T06:44:10.794Z,11.01
2022-11-10T06:45:15.100Z,11.00
2022-11-10T06:46:19.322Z,10.99
2022-11-10T06:47:23.678Z,10.98
2022-11-10T06:48:27.864Z,10.98
2022-11-10T06:49:32.199Z,10.97
2022-11-10T06:50:36.435Z,10.96
2022-11-10T06:51:40.660Z,10.95
2022-11-10T06:52:44.989Z,10.95
2022-11-10T06:53:49.313Z,10.95
2022-11-10T06:54:53.460Z,10.96
2022-11-10T06:55:57.702Z,10.95
2022-11-10T06:57:01.926Z,10.96
2022-11-10T06:58:06.196Z,10.96
2022-11-10T06:59:10.425Z,10.97
2022-11-10T07:00:14.671Z,10.99
2022-11-10T07:01:22.406Z,10.99
2022-11-10T07:02:23.267Z,10.99
2022-11-10T07:03:27.505Z,10.99
2022-11-10T07:04:31.710Z,10.99
2022-11-10T07:05:36.055Z,10.99
2022-11-10T07:06:40.444Z,10.99
2022-11-10T07:07:44.614Z,11.00
2022-11-10T07:08:48.920Z,11.01
2022-11-10T07:09:53.183Z,11.02
2022-11-10T07:10:57.517Z,11.03
2022-11-10T07:12:01.709Z,11.04
2022-11-10T07:13:06.004Z,11.05
2022-11-10T07:14:10.331Z,11.07
2022-11-10T07:15:14.530Z,11.08
2022-11-10T07:16:24.224Z,11.09
2022-11-10T07:17:22.941Z,11.11
2022-11-10T07:18:27.302Z,11.12
2022-11-10T07:19:31.621Z,11.14
2022-11-10T07:20:35.932Z,11.15
2022-11-10T07:21:40.165Z,11.17
2022-11-10T07:22:44.420Z,11.18
2022-11-10T07:23:48.762Z,11.19
2022-11-10T07:24:52.932Z,11.19
2022-11-10T07:25:57.169Z,11.20
2022-11-10T07:27:01.397Z,11.20
2022-11-10T07:28:05.710Z,11.20
2022-11-10T07:29:09.923Z,11.20
2022-11-10T07:30:14.147Z,11.20
2022-11-10T07:31:18.398Z,11.21
2022-11-10T07:32:22.698Z,11.21
2022-11-10T07:33:26.932Z,11.22
2022-11-10T07:34:32.264Z,11.22
2022-11-10T07:35:36.088Z,11.23
2022-11-10T07:36:40.315Z,11.23
2022-11-10T07:37:44.526Z,11.24
2022-11-10T07:38:48.781Z,11.25
2022-11-10T07:39:53.085Z,11.26
2022-11-10T07:40:57.272Z,11.26
2022-11-10T07:42:01.495Z,11.27
2022-11-10T07:43:05.763Z,11.27
2022-11-10T07:44:10.148Z,11.27
2022-11-10T07:45:14.328Z,11.28
2022-11-10T07:46:18.662Z,11.28
2022-11-10T07:47:22.880Z,11.28
2022-11-10T07:48:27.232Z,11.28
2022-11-10T07:49:31.453Z,11.28
2022-11-10T07:50:35.705Z,11.28
2022-11-10T07:51:40.062Z,11.27
2022-11-10T07:52:44.344Z,11.27
2022-11-10T07:53:48.551Z,11.27
2022-11-10T07:54:52.783Z,11.27
2022-11-10T07:55:57.152Z,11.27
2022-11-10T07:57:01.347Z,11.28
2022-11-10T07:58:05.560Z,11.28
2022-11-10T07:59:09.791Z,11.28
2022-11-10T08:00:14.056Z,11.29
2022-11-10T08:01:18.335Z,11.29
2022-11-10T08:02:22.528Z,11.29
2022-11-10T08:03:26.848Z,11.29
2022-11-10T08:04:31.004Z,11.29
2022-11-10T08:05:35.266Z,11.28
2022-11-10T08:06:39.642Z,11.29
2022-11-10T08:07:43.912Z,11.30
2022-11-10T08:08:48.041Z,11.32
2022-11-10T08:09:52.420Z,11.33
2022-11-10T08:10:56.599Z,11.34
2022-11-10T08:12:00.930Z,11.35
2022-11-10T08:13:05.236Z,11.36
2022-11-10T08:14:09.405Z,11.37
2022-11-10T08:15:13.655Z,11.38
2022-11-10T08:16:18.037Z,11.39
2022-11-10T08:17:22.187Z,11.40
2022-11-10T08:18:30.803Z,11.40
2022-11-10T08:19:30.749Z,11.41
2022-11-10T08:20:35.011Z,11.42
2022-11-10T08:21:39.243Z,11.43
2022-11-10T08:22:46.543Z,11.44
2022-11-10T08:23:49.836Z,11.45
2022-11-10T08:24:54.036Z,11.47
2022-11-10T08:25:58.300Z,11.48
2022-11-10T08:27:02.664Z,11.49
2022-11-10T08:28:06.881Z,11.50
2022-11-10T08:29:11.133Z,11.51
2022-11-10T08:30:15.435Z,11.53
2022-11-10T08:31:19.754Z,11.56
2022-11-10T08:32:23.994Z,11.58
2022-11-10T08:33:28.225Z,11.60
2022-11-10T08:34:32.467Z,11.62
2022-11-10T08:35:36.817Z,11.64
2022-11-10T08:36:41.092Z,11.64
2022-11-10T08:37:45.375Z,11.65
2022-11-10T08:38:49.686Z,11.66
2022-11-10T08:39:53.907Z,11.66
2022-11-10T08:40:58.212Z,11.68
2022-11-10T08:42:02.477Z,11.70
2022-11-10T08:43:06.759Z,11.73
2022-11-10T08:44:11.715Z,11.74
2022-11-10T08:45:15.215Z,11.76
2022-11-10T08:46:19.571Z,11.78
2022-11-10T08:47:23.804Z,11.79
2022-11-10T08:48:28.091Z,11.80
2022-11-10T08:49:32.365Z,11.81
2022-11-10T08:50:36.595Z,11.82
2022-11-10T08:51:40.859Z,11.84
2022-11-10T08:52:45.108Z,11.86
2022-11-10T08:53:49.374Z,11.86
2022-11-10T08:54:53.638Z,11.87
2022-11-10T08:55:57.879Z,11.89
2022-11-10T08:57:02.162Z,11.90
2022-11-10T08:58:06.466Z,11.92
2022-11-10T08:59:10.694Z,11.94
2022-11-10T09:00:15.055Z,11.95
2022-11-10T09:01:19.291Z,11.97
2022-11-10T09:02:23.559Z,11.99
2022-11-10T09:03:27.863Z,12.00
2022-11-10T09:04:32.276Z,12.01
2022-11-10T09:05:36.424Z,12.01
2022-11-10T09:06:40.784Z,12.01
2022-11-10T09:07:45.013Z,12.01
2022-11-10T09:08:49.201Z,12.01
2022-11-10T09:10:06.851Z,12.01
2022-11-10T09:10:57.818Z,12.02
2022-11-10T09:12:02.024Z,12.04
2022-11-10T09:13:06.390Z,12.05
2022-11-10T09:14:10.563Z,12.07
2022-11-10T09:15:14.960Z,12.09
2022-11-10T09:16:19.253Z,12.11
2022-11-10T09:17:23.424Z,12.13
2022-11-10T09:18:27.821Z,12.16
2022-11-10T09:19:32.049Z,12.18
2022-11-10T09:20:36.272Z,12.20
2022-11-10T09:21:40.591Z,12.21
2022-11-10T09:22:44.793Z,12.23
2022-11-10T09:23:49.065Z,12.24
2022-11-10T09:24:53.307Z,12.26
2022-11-10T09:25:57.614Z,12.28
2022-11-10T09:27:01.934Z,12.29
2022-11-10T09:28:06.167Z,12.31
2022-11-10T09:29:24.612Z,12.32
2022-11-10T09:30:27.961Z,12.36
2022-11-10T09:31:32.063Z,12.39
2022-11-10T09:32:36.319Z,12.42
2022-11-10T09:33:40.703Z,12.46
2022-11-10T09:34:48.950Z,12.50
2022-11-10T09:35:49.319Z,12.54
2022-11-10T09:36:53.500Z,12.57
2022-11-10T09:37:57.776Z,12.59
2022-11-10T09:39:02.134Z,12.61
2022-11-10T09:40:09.247Z,12.62
2022-11-10T09:41:10.640Z,12.64
2022-11-10T09:42:15.016Z,12.66
2022-11-10T09:43:19.593Z,12.68
2022-11-10T09:44:23.523Z,12.70
2022-11-10T09:45:27.901Z,12.72
2022-11-10T09:46:32.150Z,12.74
2022-11-10T09:47:56.343Z,12.76
2022-11-10T09:48:40.671Z,12.78
2022-11-10T09:49:45.083Z,12.80
2022-11-10T09:50:49.394Z,12.82
2022-11-10T09:51:53.668Z,12.83
2022-11-10T09:52:57.991Z,12.84
2022-11-10T09:54:02.299Z,12.84
2022-11-10T09:55:06.510Z,12.84
2022-11-10T09:56:10.762Z,12.84
2022-11-10T09:57:15.059Z,12.85
2022-11-10T09:58:22.525Z,12.86
2022-11-10T09:59:25.571Z,12.87
2022-11-10T10:00:29.840Z,12.89
2022-11-10T10:01:34.248Z,12.91
2022-11-10T10:02:38.384Z,12.93
2022-11-10T10:03:42.657Z,12.94
2022-11-10T10:04:51.854Z,12.96
2022-11-10T10:05:51.207Z,12.98
2022-11-10T10:07:10.074Z,12.98
2022-11-10T10:07:59.958Z,12.99
2022-11-10T10:09:04.083Z,13.00
2022-11-10T10:10:11.800Z,13.00
2022-11-10T10:11:12.660Z,13.01
2022-11-10T10:12:17.064Z,13.01
2022-11-10T10:13:21.274Z,12.99
2022-11-10T10:14:25.527Z,12.99
2022-11-10T10:15:29.807Z,13.00
2022-11-10T10:16:34.151Z,13.01
2022-11-10T10:17:41.353Z,13.04
2022-11-10T10:18:42.673Z,13.07
2022-11-10T10:19:46.930Z,13.10
2022-11-10T10:20:51.211Z,13.13
2022-11-10T10:21:55.580Z,13.17
2022-11-10T10:22:59.895Z,13.21
2022-11-10T10:24:16.512Z,13.24
2022-11-10T10:25:08.424Z,13.25
2022-11-10T10:26:12.677Z,13.26
2022-11-10T10:27:17.063Z,13.28
2022-11-10T10:28:21.748Z,13.30
2022-11-10T10:29:25.702Z,13.32
2022-11-10T10:30:30.051Z,13.34
2022-11-10T10:31:34.336Z,13.37
2022-11-10T10:32:38.582Z,13.39
2022-11-10T10:33:42.865Z,13.42
2022-11-10T10:34:47.096Z,13.44
2022-11-10T10:35:51.333Z,13.45
2022-11-10T10:36:55.608Z,13.43
2022-11-10T10:37:59.903Z,13.42
2022-11-10T10:39:04.161Z,13.40
2022-11-10T10:40:08.426Z,13.38
2022-11-10T10:41:12.662Z,13.38
2022-11-10T10:42:17.006Z,13.38
2022-11-10T10:43:21.350Z,13.38
2022-11-10T10:44:25.621Z,13.38
2022-11-10T10:45:29.994Z,13.37
2022-11-10T10:46:35.874Z,13.37
2022-11-10T10:47:38.442Z,13.37
2022-11-10T10:48:42.732Z,13.38
2022-11-10T10:49:46.979Z,13.39
2022-11-10T10:50:51.274Z,13.40
2022-11-10T10:51:55.667Z,13.40
2022-11-10T10:52:59.888Z,13.41
2022-11-10T10:54:04.150Z,13.42
2022-11-10T10:55:08.438Z,13.43
2022-11-10T10:56:12.743Z,13.44
2022-11-10T10:57:17.069Z,13.46
2022-11-10T10:58:21.782Z,13.47
2022-11-10T10:59:25.681Z,13.49
2022-11-10T11:00:30.040Z,13.51
2022-11-10T11:01:34.468Z,13.52
2022-11-10T11:02:38.581Z,13.53
2022-11-10T11:03:42.843Z,13.55
2022-11-10T11:04:47.230Z,13.57
2022-11-10T11:05:51.430Z,13.58
2022-11-10T11:06:55.827Z,13.59
2022-11-10T11:08:00.080Z,13.59
2022-11-10T11:09:04.298Z,13.59
2022-11-10T11:10:08.592Z,13.58
2022-11-10T11:11:12.866Z,13.56
2022-11-10T11:12:17.190Z,13.54
2022-11-10T11:13:21.437Z,13.54
2022-11-10T11:14:25.761Z,13.55
2022-11-10T11:15:30.120Z,13.55
2022-11-10T11:16:34.348Z,13.54
2022-11-10T11:17:38.746Z,13.52
2022-11-10T11:18:43.011Z,13.51
2022-11-10T11:19:50.245Z,13.50
2022-11-10T11:20:53.677Z,13.49
2022-11-10T11:21:57.888Z,13.49
2022-11-10T11:23:02.231Z,13.48
2022-11-10T11:24:06.535Z,13.46
2022-11-10T11:25:10.817Z,13.46
2022-11-10T11:26:15.065Z,13.45
2022-11-10T11:27:19.351Z,13.43
2022-11-10T11:28:24.014Z,13.43
2022-11-10T11:29:27.970Z,13.43
2022-11-10T11:30:32.186Z,13.41
2022-11-10T11:31:42.723Z,13.40
2022-11-10T11:32:40.755Z,13.39
2022-11-10T11:33:45.135Z,13.39
2022-11-10T11:34:49.365Z,13.40
2022-11-10T11:35:53.708Z,13.42
2022-11-10T11:36:58.015Z,13.45
2022-11-10T11:38:02.324Z,13.48
2022-11-10T11:39:06.656Z,13.50
2022-11-10T11:40:10.949Z,13.50
2022-11-10T11:41:15.266Z,13.49
2022-11-10T11:42:19.506Z,13.47
2022-11-10T11:43:23.894Z,13.46
2022-11-10T11:44:28.165Z,13.46
2022-11-10T11:45:32.407Z,13.47
2022-11-10T11:46:36.689Z,13.47
2022-11-10T11:47:40.938Z,13.47
2022-11-10T11:48:45.206Z,13.46
2022-11-10T11:49:49.539Z,13.46
2022-11-10T11:50:53.780Z,13.45
2022-11-10T11:51:58.112Z,13.45
2022-11-10T11:53:02.335Z,13.45
2022-11-10T11:54:06.602Z,13.44
2022-11-10T11:55:10.888Z,13.43
2022-11-10T11:56:15.233Z,13.42
2022-11-10T11:57:19.537Z,13.40
2022-11-10T11:58:24.159Z,13.39
2022-11-10T11:59:28.176Z,13.38
2022-11-10T12:00:32.359Z,13.39
2022-11-10T12:01:36.652Z,13.40
2022-11-10T12:02:40.922Z,13.40
2022-11-10T12:03:45.262Z,13.41
2022-11-10T12:04:49.574Z,13.42
2022-11-10T12:05:53.889Z,13.43
2022-11-10T12:06:58.266Z,13.43
2022-11-10T12:08:02.480Z,13.44
2022-11-10T12:09:06.729Z,13.45
2022-11-10T12:10:10.993Z,13.45
2022-11-10T12:11:15.251Z,13.45
2022-11-10T12:12:19.603Z,13.45
2022-11-10T12:13:23.848Z,13.45
2022-11-10T12:14:28.125Z,13.45
2022-11-10T12:15:32.529Z,13.46
2022-11-10T12:16:36.780Z,13.47
2022-11-10T12:17:41.002Z,13.48
2022-11-10T12:18:49.478Z,13.49
2022-11-10T12:19:49.628Z,13.49
2022-11-10T12:20:54.005Z,13.50
2022-11-10T12:21:58.220Z,13.51
2022-11-10T12:23:02.455Z,13.51
2022-11-10T12:24:10.142Z,13.52
2022-11-10T12:25:11.151Z,13.52
2022-11-10T12:26:15.407Z,13.51
2022-11-10T12:28:47.163Z,13.51
2022-11-10T12:29:51.441Z,13.53
2022-11-10T12:31:01.479Z,13.54
2022-11-10T12:32:00.095Z,13.55
2022-11-10T12:33:04.171Z,13.56
2022-11-10T12:34:08.600Z,13.57
2022-11-10T12:35:12.791Z,13.57
2022-11-10T12:36:17.169Z,13.58
2022-11-10T12:37:27.525Z,13.58
2022-11-10T12:38:25.818Z,13.58
2022-11-10T12:39:30.123Z,13.58
2022-11-10T12:40:37.978Z,13.57
2022-11-10T12:41:38.770Z,13.57
2022-11-10T12:42:43.128Z,13.57
2022-11-10T12:43:47.340Z,13.57
2022-11-10T12:46:19.005Z,13.56
2022-11-10T12:47:23.147Z,13.57
2022-11-10T12:48:27.428Z,13.58
2022-11-10T12:49:31.778Z,13.58
2022-11-10T12:50:36.127Z,13.58
2022-11-10T12:51:40.361Z,13.57
2022-11-10T12:52:44.665Z,13.56
2022-11-10T12:53:48.910Z,13.56
2022-11-10T12:54:53.306Z,13.57
2022-11-10T12:55:57.618Z,13.57
2022-11-10T12:57:01.855Z,13.57
2022-11-10T12:58:06.221Z,13.57
2022-11-10T12:59:10.524Z,13.56
2022-11-10T13:00:18.742Z,13.56
2022-11-10T13:01:19.156Z,13.56
2022-11-10T13:02:23.365Z,13.56
2022-11-10T13:03:27.711Z,13.56
2022-11-10T13:04:31.998Z,13.56
2022-11-10T13:05:36.345Z,13.57
2022-11-10T13:06:40.704Z,13.57
2022-11-10T13:07:44.968Z,13.58
2022-11-10T13:08:49.159Z,13.57
2022-11-10T13:09:53.515Z,13.58
2022-11-10T13:10:57.845Z,13.59
2022-11-10T13:12:02.149Z,13.59
2022-11-10T13:13:06.410Z,13.60
2022-11-10T13:14:10.677Z,13.62
2022-11-10T13:15:15.048Z,13.64
2022-11-10T13:16:19.376Z,13.65
2022-11-10T13:17:23.605Z,13.68
2022-11-10T13:18:33.927Z,13.73
2022-11-10T13:19:36.842Z,13.81
2022-11-10T13:20:41.179Z,13.89
2022-11-10T13:21:45.372Z,13.96
2022-11-10T13:22:49.759Z,14.02
2022-11-10T13:23:53.997Z,14.09
2022-11-10T13:24:58.331Z,14.15
2022-11-10T13:26:02.696Z,14.19
2022-11-10T13:27:06.912Z,14.22
2022-11-10T13:28:11.218Z,14.25
2022-11-10T13:29:15.592Z,14.28
2022-11-10T13:30:19.932Z,14.31
2022-11-10T13:31:24.188Z,14.34
2022-11-10T13:32:28.420Z,14.36
2022-11-10T13:33:32.708Z,14.36
2022-11-10T13:34:37.065Z,14.34
2022-11-10T13:35:41.387Z,14.32
2022-11-10T13:36:45.494Z,14.30
2022-11-10T13:37:49.944Z,14.28
2022-11-10T13:38:54.169Z,14.24
2022-11-10T13:39:58.520Z,14.19
2022-11-10T13:41:02.755Z,14.16
2022-11-10T13:42:07.003Z,14.13
2022-11-10T13:43:11.375Z,14.10
2022-11-10T13:44:15.623Z,14.07
2022-11-10T13:45:19.988Z,14.03
2022-11-10T13:46:24.240Z,14.00
2022-11-10T13:47:28.588Z,13.98
2022-11-10T13:48:32.891Z,13.95
2022-11-10T13:49:37.125Z,13.94
2022-11-10T13:50:41.450Z,13.93
2022-11-10T13:51:45.698Z,13.93